Time;durP1;ratioP1;P1;durP2;ratioP2;P2;SDS_P1;SDS_P2;PMS_P1;PMS_P2;Temp;Humidity;BMP_temperature;BMP_pressure;BME280_temperature;BME280_humidity;BME280_pressure;Samples;Min_cycle;Max_cycle;Signal;HPM_P1;HPM_P2
2023/09/21 00:00:20;;;;;;;2.70;2.07;;;24.50;57.00;;;;;;5093464;28;20221;-66
2023/09/21 00:02:50;;;;;;;2.80;2.23;;;24.50;57.00;;;;;;5093423;28;20886;-66
2023/09/21 00:05:21;;;;;;;2.07;1.87;;;24.50;57.00;;;;;;5093466;28;20460;-65
2023/09/21 00:07:47;;;;;;;4.87;2.50;;;24.50;57.00;;;;;;5092803;28;20423;-65
2023/09/21 00:10:13;;;;;;;2.33;2.07;;;24.50;57.00;;;;;;5093363;28;20423;-65
2023/09/21 00:12:40;;;;;;;2.20;2.00;;;24.50;57.00;;;;;;5092177;28;20212;-65
2023/09/21 00:15:06;;;;;;;2.70;2.00;;;24.40;57.00;;;;;;5091860;28;20441;-66
2023/09/21 00:17:35;;;;;;;2.63;2.27;;;24.40;57.00;;;;;;5091862;28;20424;-66
2023/09/21 00:22:54;;;;;;;2.50;2.30;;;24.40;57.00;;;;;;5092672;28;20431;-65
2023/09/21 00:25:22;;;;;;;2.10;1.90;;;24.40;57.00;;;;;;5092165;28;20412;-65
2023/09/21 00:27:47;;;;;;;2.63;2.37;;;24.40;57.00;;;;;;5092581;28;20491;-65
2023/09/21 00:30:13;;;;;;;2.57;2.37;;;24.40;57.00;;;;;;5092788;28;20486;-65
2023/09/21 00:32:39;;;;;;;3.17;2.30;;;24.40;57.00;;;;;;5093020;28;20592;-65
2023/09/21 00:35:09;;;;;;;2.60;2.20;;;24.40;57.10;;;;;;5092880;28;20201;-65
2023/09/21 00:37:39;;;;;;;2.23;1.70;;;24.40;57.10;;;;;;5092856;28;20269;-65
2023/09/21 00:40:17;;;;;;;2.20;2.00;;;24.40;57.10;;;;;;5092886;28;20400;-65
2023/09/21 00:42:44;;;;;;;2.50;2.30;;;24.40;57.10;;;;;;5092963;28;20958;-66
2023/09/21 00:45:10;;;;;;;3.43;2.53;;;24.40;57.10;;;;;;5092644;28;20895;-65
2023/09/21 00:47:41;;;;;;;2.03;1.63;;;24.40;57.10;;;;;;5092695;28;20419;-65
2023/09/21 00:50:10;;;;;;;2.90;1.83;;;24.40;57.10;;;;;;5092563;28;20403;-65
2023/09/21 00:52:41;;;;;;;2.20;2.00;;;24.40;57.10;;;;;;5092392;28;20930;-65
2023/09/21 00:55:10;;;;;;;2.10;1.73;;;24.40;57.10;;;;;;5092572;28;20427;-67
2023/09/21 00:57:36;;;;;;;2.10;1.83;;;24.40;57.10;;;;;;5092724;28;20439;-66
2023/09/21 01:00:10;;;;;;;2.87;2.37;;;24.40;57.10;;;;;;5092512;28;20926;-65
2023/09/21 01:02:37;;;;;;;2.00;1.80;;;24.40;57.10;;;;;;5092103;28;20929;-64
2023/09/21 01:05:14;;;;;;;2.20;2.00;;;24.40;57.10;;;;;;5092374;28;20420;-65
2023/09/21 01:07:42;;;;;;;2.70;2.00;;;24.40;57.10;;;;;;5090892;28;20404;-65
2023/09/21 01:10:13;;;;;;;2.50;2.30;;;24.40;57.10;;;;;;5092278;28;20787;-65
2023/09/21 01:12:43;;;;;;;2.23;1.83;;;24.40;57.10;;;;;;5092002;28;20542;-66
2023/09/21 01:15:09;;;;;;;2.80;2.00;;;24.40;57.10;;;;;;5092145;28;20392;-65
2023/09/21 01:17:35;;;;;;;3.10;2.23;;;24.40;57.10;;;;;;5092049;28;20426;-66
2023/09/21 01:20:18;;;;;;;2.13;1.90;;;24.30;57.00;;;;;;5091857;28;20204;-66
2023/09/21 01:23:12;;;;;;;2.03;1.83;;;24.30;57.10;;;;;;5090869;28;20426;-66
2023/09/21 01:25:39;;;;;;;3.47;2.40;;;24.40;57.10;;;;;;5091940;28;20753;-65
2023/09/21 01:28:09;;;;;;;2.07;1.87;;;24.30;57.10;;;;;;5091832;28;20407;-65
2023/09/21 01:30:37;;;;;;;2.90;2.70;;;24.30;57.00;;;;;;5091847;28;20416;-65
2023/09/21 01:33:08;;;;;;;2.53;2.20;;;24.30;57.10;;;;;;5091658;28;20996;-66
2023/09/21 01:35:34;;;;;;;2.20;2.00;;;24.30;57.60;;;;;;5074375;28;20396;-65
2023/09/21 01:38:00;;;;;;;2.10;1.90;;;24.30;57.60;;;;;;5056848;28;20770;-66
2023/09/21 01:40:25;;;;;;;3.90;2.40;;;24.30;57.10;;;;;;5090380;28;20472;-65
2023/09/21 01:42:51;;;;;;;2.03;1.83;;;24.30;57.10;;;;;;5073271;28;20255;-66
2023/09/21 01:45:17;;;;;;;2.20;1.90;;;24.30;57.10;;;;;;5073680;28;20260;-66
2023/09/21 01:47:46;;;;;;;2.10;1.83;;;24.30;57.10;;;;;;5073726;28;20188;-65
2023/09/21 01:50:15;;;;;;;2.47;2.00;;;24.30;57.10;;;;;;5091773;28;20420;-66
2023/09/21 01:52:41;;;;;;;2.47;1.87;;;24.30;57.10;;;;;;5089934;28;20455;-66
2023/09/21 01:55:10;;;;;;;2.70;2.00;;;24.30;57.10;;;;;;5090149;28;20408;-66
2023/09/21 01:57:37;;;;;;;2.20;2.00;;;24.30;57.10;;;;;;5090152;28;20949;-66
2023/09/21 02:00:27;;;;;;;2.10;1.80;;;24.30;57.10;;;;;;5091576;28;20499;-66
2023/09/21 02:02:52;;;;;;;2.03;1.70;;;24.30;57.10;;;;;;5089625;28;20435;-66
2023/09/21 02:05:18;;;;;;;3.40;2.50;;;24.30;57.10;;;;;;5091154;28;20426;-66
2023/09/21 02:07:43;;;;;;;2.40;1.70;;;24.30;57.20;;;;;;5073049;28;20411;-66
2023/09/21 02:10:11;;;;;;;2.50;1.90;;;24.30;57.70;;;;;;5073015;28;20177;-65
2023/09/21 02:12:41;;;;;;;2.47;2.00;;;24.30;57.70;;;;;;5089630;28;20204;-66
2023/09/21 02:15:12;;;;;;;2.20;2.00;;;24.30;57.20;;;;;;5072433;28;20856;-66
2023/09/21 02:17:41;;;;;;;2.67;1.80;;;24.30;57.10;;;;;;5089706;28;20499;-65
2023/09/21 02:20:16;;;;;;;2.53;2.00;;;24.30;57.10;;;;;;5072846;28;20471;-66
2023/09/21 02:22:46;;;;;;;2.00;1.80;;;24.30;57.10;;;;;;5089736;28;20442;-66
2023/09/21 02:25:13;;;;;;;2.30;2.10;;;24.30;57.10;;;;;;5090995;28;20453;-66
2023/09/21 02:27:40;;;;;;;2.27;2.00;;;24.30;57.10;;;;;;5072847;28;20428;-66
2023/09/21 02:30:11;;;;;;;2.40;2.20;;;24.30;57.10;;;;;;5091201;28;20415;-65
2023/09/21 02:32:37;;;;;;;2.20;2.00;;;24.30;57.10;;;;;;5089387;28;20474;-66
2023/09/21 02:35:07;;;;;;;2.63;2.20;;;24.30;57.10;;;;;;5089638;28;20404;-64
2023/09/21 02:37:34;;;;;;;2.00;1.70;;;24.30;57.10;;;;;;5073421;28;20172;-66
2023/09/21 02:40:00;;;;;;;2.70;2.00;;;24.30;57.10;;;;;;5072912;28;20409;-65
2023/09/21 02:42:26;;;;;;;3.00;2.00;;;24.30;57.10;;;;;;5072660;28;20435;-65
2023/09/21 02:44:55;;;;;;;2.40;2.10;;;24.30;57.10;;;;;;5090803;28;20286;-66
2023/09/21 02:47:21;;;;;;;2.50;1.90;;;24.30;57.10;;;;;;5073073;28;20212;-64
2023/09/21 02:49:47;;;;;;;2.40;2.00;;;24.30;57.20;;;;;;5072725;28;20403;-66
2023/09/21 02:52:13;;;;;;;2.47;2.10;;;24.30;57.20;;;;;;5089323;28;20451;-65
2023/09/21 02:54:39;;;;;;;2.20;2.00;;;24.30;57.20;;;;;;5089466;28;20178;-65
2023/09/21 02:57:05;;;;;;;3.50;1.90;;;24.30;57.10;;;;;;5090790;28;20629;-66
2023/09/21 02:59:31;;;;;;;2.17;1.97;;;24.30;57.20;;;;;;5090672;28;20396;-65
2023/09/21 03:01:57;;;;;;;1.83;1.73;;;24.30;57.20;;;;;;5089251;28;20523;-66
2023/09/21 03:04:22;;;;;;;3.00;2.03;;;24.30;57.20;;;;;;5090663;28;20642;-66
2023/09/21 03:06:48;;;;;;;2.30;2.00;;;24.30;57.70;;;;;;5089286;28;20178;-66
2023/09/21 03:09:14;;;;;;;2.83;2.17;;;24.30;57.20;;;;;;5090622;28;20214;-65
2023/09/21 03:11:40;;;;;;;2.20;2.00;;;24.20;57.10;;;;;;5090421;28;20197;-65
2023/09/21 03:14:06;;;;;;;2.43;2.03;;;24.30;57.20;;;;;;5089162;28;20177;-66
2023/09/21 03:16:32;;;;;;;2.20;2.00;;;24.20;57.10;;;;;;5089144;28;20172;-66
2023/09/21 03:18:58;;;;;;;1.93;1.73;;;24.20;57.10;;;;;;5072389;28;20166;-66
2023/09/21 03:21:24;;;;;;;2.60;1.93;;;24.30;57.20;;;;;;5090403;28;20432;-66
2023/09/21 03:23:52;;;;;;;2.00;1.70;;;24.30;57.20;;;;;;5088630;28;20681;-65
2023/09/21 03:26:18;;;;;;;2.20;1.90;;;24.30;57.20;;;;;;5084666;28;20428;-66
2023/09/21 03:28:47;;;;;;;1.90;1.77;;;24.30;57.20;;;;;;5074188;28;20411;-66
2023/09/21 03:31:13;;;;;;;1.80;1.70;;;24.30;57.20;;;;;;5073060;28;20462;-65
2023/09/21 03:33:38;;;;;;;2.27;1.97;;;24.30;57.20;;;;;;5072732;28;20440;-65
2023/09/21 03:36:04;;;;;;;2.30;1.90;;;24.20;57.10;;;;;;5072402;28;20209;-64
2023/09/21 03:38:30;;;;;;;2.10;1.80;;;24.20;57.10;;;;;;5073577;28;20208;-65
2023/09/21 03:40:57;;;;;;;2.27;2.07;;;24.20;57.10;;;;;;5072310;28;20178;-66
2023/09/21 03:43:23;;;;;;;1.90;1.70;;;24.20;57.10;;;;;;5073581;28;20190;-66
2023/09/21 03:45:49;;;;;;;2.30;2.10;;;24.20;57.10;;;;;;5073657;28;20943;-65
2023/09/21 03:48:15;;;;;;;2.60;1.70;;;24.20;57.10;;;;;;5073580;28;20409;-65
2023/09/21 03:50:42;;;;;;;2.13;1.60;;;24.20;57.10;;;;;;5073611;28;20245;-65
2023/09/21 03:53:11;;;;;;;1.70;1.60;;;24.20;57.10;;;;;;5073372;28;20538;-66
2023/09/21 03:55:41;;;;;;;2.10;1.90;;;24.20;57.10;;;;;;5073447;28;20405;-65
2023/09/21 03:58:07;;;;;;;2.90;1.90;;;24.20;57.10;;;;;;5073467;28;20947;-66
2023/09/21 04:03:01;;;;;;;2.30;1.73;;;24.20;57.10;;;;;;5073534;28;20477;-64
2023/09/21 04:05:29;;;;;;;2.13;1.70;;;24.20;57.10;;;;;;5073329;28;20656;-65
2023/09/21 04:07:55;;;;;;;2.10;1.90;;;24.20;57.10;;;;;;5073200;28;20405;-66
2023/09/21 04:10:21;;;;;;;2.33;2.07;;;24.20;57.10;;;;;;5073268;28;20408;-64
2023/09/21 04:12:47;;;;;;;2.23;1.70;;;24.20;57.10;;;;;;5072954;28;20594;-66
2023/09/21 04:15:13;;;;;;;2.27;1.70;;;24.20;57.20;;;;;;5073102;28;20166;-65
2023/09/21 04:17:39;;;;;;;1.73;1.60;;;24.20;57.20;;;;;;5073106;28;20235;-66
2023/09/21 04:20:10;;;;;;;2.50;2.00;;;24.20;57.20;;;;;;5072884;28;20940;-66
2023/09/21 04:22:39;;;;;;;2.10;1.90;;;24.20;57.20;;;;;;5072671;28;20435;-64
2023/09/21 04:25:10;;;;;;;2.57;2.37;;;24.20;57.20;;;;;;5072819;28;20415;-65
2023/09/21 04:27:41;;;;;;;2.07;1.87;;;24.20;57.10;;;;;;5073229;28;20389;-65
2023/09/21 04:30:11;;;;;;;1.87;1.50;;;24.20;57.20;;;;;;5072814;28;20413;-65
2023/09/21 04:32:36;;;;;;;2.17;1.80;;;24.20;57.20;;;;;;5072598;28;20470;-66
2023/09/21 04:35:04;;;;;;;2.50;2.17;;;24.20;57.20;;;;;;5072735;28;20515;-65
2023/09/21 04:37:30;;;;;;;2.20;1.70;;;24.20;57.20;;;;;;5072032;28;20166;-63
2023/09/21 04:39:55;;;;;;;1.70;1.60;;;24.20;57.20;;;;;;5072573;28;20511;-65
2023/09/21 04:42:21;;;;;;;3.33;2.00;;;24.20;57.20;;;;;;5072484;28;20206;-65
2023/09/21 04:44:47;;;;;;;2.10;1.90;;;24.20;57.20;;;;;;5072731;28;20182;-66
2023/09/21 04:47:12;;;;;;;1.90;1.70;;;24.20;57.20;;;;;;5072518;28;20180;-65
2023/09/21 04:49:38;;;;;;;2.13;1.93;;;24.20;57.20;;;;;;5072469;28;20178;-65
2023/09/21 04:52:04;;;;;;;2.07;1.83;;;24.20;57.20;;;;;;5072165;28;20304;-65
2023/09/21 04:54:29;;;;;;;2.40;1.83;;;24.20;57.20;;;;;;5072445;28;20181;-67
2023/09/21 04:56:55;;;;;;;2.13;1.70;;;24.20;57.20;;;;;;5070979;28;20421;-68
2023/09/21 04:59:21;;;;;;;2.67;1.90;;;24.20;57.20;;;;;;5072180;28;20178;-65
2023/09/21 05:01:47;;;;;;;2.30;2.10;;;24.20;57.20;;;;;;5072303;28;20289;-65
2023/09/21 05:04:13;;;;;;;1.77;1.50;;;24.20;57.20;;;;;;5072091;28;20189;-66
2023/09/21 05:06:39;;;;;;;2.03;1.83;;;24.20;57.30;;;;;;5071794;28;20412;-63
2023/09/21 05:09:05;;;;;;;2.70;1.93;;;24.20;57.20;;;;;;5072206;28;20553;-67
2023/09/21 05:11:38;;;;;;;2.70;1.90;;;24.20;57.20;;;;;;5079665;28;20189;-68
2023/09/21 05:14:05;;;;;;;2.00;1.80;;;24.20;57.20;;;;;;5090697;28;20165;-64
2023/09/21 05:16:32;;;;;;;2.23;1.60;;;24.20;57.30;;;;;;5089327;28;20423;-67
2023/09/21 05:18:58;;;;;;;1.90;1.70;;;24.20;57.30;;;;;;5089603;28;20972;-67
2023/09/21 05:21:23;;;;;;;2.07;1.83;;;24.20;57.30;;;;;;5089841;28;20435;-67
2023/09/21 05:23:49;;;;;;;1.87;1.77;;;24.20;57.30;;;;;;5090963;28;20803;-65
2023/09/21 05:26:15;;;;;;;2.63;2.40;;;24.20;57.30;;;;;;5091640;28;20181;-66
2023/09/21 05:28:40;;;;;;;1.90;1.60;;;24.20;57.30;;;;;;5091685;28;20166;-65
2023/09/21 05:31:10;;;;;;;2.40;2.00;;;24.20;57.30;;;;;;5083703;28;20182;-67
2023/09/21 05:33:36;;;;;;;2.40;2.00;;;24.20;57.30;;;;;;5090363;28;20209;-66
2023/09/21 05:36:04;;;;;;;1.60;1.50;;;24.20;57.30;;;;;;5090289;28;20404;-66
2023/09/21 05:38:32;;;;;;;2.40;2.10;;;24.20;57.30;;;;;;5091489;28;20790;-66
2023/09/21 05:41:04;;;;;;;2.63;2.00;;;24.20;57.30;;;;;;5091477;28;20506;-63
2023/09/21 05:43:30;;;;;;;2.60;2.13;;;24.20;57.30;;;;;;5091585;28;20462;-67
2023/09/21 05:45:56;;;;;;;2.73;1.80;;;24.20;57.30;;;;;;5091195;28;20416;-67
2023/09/21 05:48:22;;;;;;;2.50;1.77;;;24.20;57.30;;;;;;5091216;28;20508;-66
2023/09/21 05:50:48;;;;;;;2.37;1.90;;;24.20;57.30;;;;;;5091024;28;20185;-67
2023/09/21 05:53:14;;;;;;;2.93;2.30;;;24.20;57.30;;;;;;5091284;28;20471;-67
2023/09/21 05:55:43;;;;;;;2.47;2.27;;;24.20;57.30;;;;;;5091372;28;20181;-66
2023/09/21 05:58:09;;;;;;;2.27;1.90;;;24.20;57.30;;;;;;5091380;28;20195;-66
2023/09/21 06:00:35;;;;;;;2.07;1.87;;;24.20;57.30;;;;;;5091267;28;20403;-66
2023/09/21 06:03:00;;;;;;;2.07;1.80;;;24.20;57.40;;;;;;5091320;28;20284;-66
2023/09/21 06:05:29;;;;;;;2.03;1.80;;;24.20;57.40;;;;;;5091189;28;20180;-67
2023/09/21 06:07:56;;;;;;;3.63;1.93;;;24.20;57.40;;;;;;5091298;28;20178;-67
2023/09/21 06:10:25;;;;;;;2.70;2.10;;;24.20;57.40;;;;;;5091250;28;20408;-67
2023/09/21 06:12:51;;;;;;;2.07;1.87;;;24.20;57.40;;;;;;5091140;28;21118;-67
2023/09/21 06:15:18;;;;;;;2.23;1.93;;;24.20;57.40;;;;;;5091135;28;20431;-67
2023/09/21 06:17:45;;;;;;;2.37;2.10;;;24.20;57.40;;;;;;5091110;28;20169;-67
2023/09/21 06:20:11;;;;;;;2.07;1.70;;;24.20;57.40;;;;;;5091120;28;20489;-67
2023/09/21 06:22:37;;;;;;;2.47;2.10;;;24.20;57.40;;;;;;5090961;28;20454;-66
2023/09/21 06:25:05;;;;;;;1.87;1.60;;;24.10;57.40;;;;;;5091017;28;20423;-66
2023/09/21 06:27:31;;;;;;;2.10;1.90;;;24.20;57.50;;;;;;5091203;28;20657;-67
2023/09/21 06:29:58;;;;;;;1.97;1.77;;;24.20;57.40;;;;;;5090948;28;20415;-66
2023/09/21 06:32:24;;;;;;;2.30;1.90;;;24.10;57.40;;;;;;5090871;28;20626;-67
2023/09/21 06:34:51;;;;;;;2.10;1.90;;;24.20;57.50;;;;;;5090978;28;20399;-65
2023/09/21 06:37:18;;;;;;;2.67;2.00;;;24.20;57.40;;;;;;5090950;28;20165;-67
2023/09/21 06:39:44;;;;;;;2.73;2.07;;;24.20;57.40;;;;;;5089679;28;20415;-67
2023/09/21 06:42:10;;;;;;;2.50;1.87;;;24.10;57.40;;;;;;5090763;28;20438;-65
2023/09/21 06:44:36;;;;;;;2.10;1.77;;;24.20;57.50;;;;;;5091206;28;20181;-65
2023/09/21 06:47:03;;;;;;;3.33;2.00;;;24.20;57.40;;;;;;5091082;28;20469;-66
2023/09/21 06:49:29;;;;;;;2.30;2.10;;;24.20;57.40;;;;;;5090791;28;20234;-67
2023/09/21 06:51:56;;;;;;;2.20;1.90;;;24.20;57.40;;;;;;5090579;28;21018;-65
2023/09/21 06:54:23;;;;;;;2.80;2.60;;;24.20;57.40;;;;;;5090761;28;20412;-66
2023/09/21 06:56:49;;;;;;;2.73;1.90;;;24.20;57.40;;;;;;5090680;28;20439;-67
2023/09/21 06:59:15;;;;;;;2.30;2.03;;;24.20;57.40;;;;;;5090706;28;21041;-66
2023/09/21 07:01:40;;;;;;;1.90;1.70;;;24.20;57.40;;;;;;5093582;28;20165;-67
2023/09/21 07:04:07;;;;;;;2.43;1.87;;;24.20;57.40;;;;;;5094474;28;20988;-67
2023/09/21 07:06:32;;;;;;;1.93;1.73;;;24.20;57.40;;;;;;5094621;28;20264;-66
2023/09/21 07:09:00;;;;;;;2.60;1.77;;;24.20;57.40;;;;;;5094669;28;20498;-67
2023/09/21 07:11:26;;;;;;;2.10;1.90;;;24.20;57.40;;;;;;5094338;28;20253;-67
2023/09/21 07:13:52;;;;;;;2.03;1.77;;;24.20;57.40;;;;;;5094735;28;20502;-67
2023/09/21 07:16:19;;;;;;;1.83;1.67;;;24.20;57.40;;;;;;5094416;28;20910;-66
2023/09/21 07:18:47;;;;;;;2.50;1.93;;;24.20;57.40;;;;;;5093061;28;20261;-67
2023/09/21 07:21:13;;;;;;;2.23;1.73;;;24.20;57.40;;;;;;5094253;28;20457;-66
2023/09/21 07:23:40;;;;;;;1.87;1.60;;;24.20;57.40;;;;;;5094289;28;20431;-66
2023/09/21 07:26:05;;;;;;;2.33;1.83;;;24.20;57.40;;;;;;5085829;28;20429;-66
2023/09/21 07:28:32;;;;;;;2.47;2.23;;;24.20;57.40;;;;;;5084420;28;20444;-66
2023/09/21 07:30:58;;;;;;;2.30;2.10;;;24.20;57.40;;;;;;5079338;28;20269;-66
2023/09/21 07:33:23;;;;;;;2.27;2.07;;;24.20;57.40;;;;;;5072367;28;21124;-66
2023/09/21 07:35:51;;;;;;;3.80;2.37;;;24.20;57.40;;;;;;5076088;28;20923;-67
2023/09/21 07:38:19;;;;;;;2.50;2.30;;;24.20;57.40;;;;;;5093958;28;20654;-66
2023/09/21 07:40:45;;;;;;;2.60;1.93;;;24.20;57.40;;;;;;5092524;28;20415;-68
2023/09/21 07:43:10;;;;;;;2.10;1.90;;;24.20;57.40;;;;;;5094043;28;20432;-66
2023/09/21 07:45:36;;;;;;;3.10;2.17;;;24.20;57.40;;;;;;5093679;28;20169;-66
2023/09/21 07:48:02;;;;;;;3.00;1.80;;;24.20;57.40;;;;;;5093679;28;20178;-67
2023/09/21 07:50:32;;;;;;;2.97;2.10;;;24.20;57.40;;;;;;5093743;28;20177;-67
2023/09/21 07:52:59;;;;;;;2.23;2.00;;;24.20;57.40;;;;;;5093436;28;20205;-67
2023/09/21 07:55:25;;;;;;;2.27;1.80;;;24.20;57.40;;;;;;5093622;28;20455;-67
2023/09/21 07:57:50;;;;;;;2.47;1.90;;;24.20;57.40;;;;;;5092718;28;20950;-67
2023/09/21 08:00:17;;;;;;;2.00;1.80;;;24.20;57.40;;;;;;5093604;28;20402;-67
2023/09/21 08:02:42;;;;;;;3.40;2.50;;;24.20;57.40;;;;;;5092071;28;20197;-67
2023/09/21 08:05:09;;;;;;;2.73;1.90;;;24.20;57.40;;;;;;5092499;28;20775;-68
2023/09/21 08:07:36;;;;;;;2.57;1.87;;;24.20;57.40;;;;;;5092331;28;20165;-67
2023/09/21 08:10:03;;;;;;;3.10;1.97;;;24.20;57.40;;;;;;5093439;28;20411;-67
2023/09/21 08:12:30;;;;;;;2.60;2.10;;;24.20;57.40;;;;;;5090887;28;20498;-67
2023/09/21 08:14:57;;;;;;;2.40;1.70;;;24.20;57.40;;;;;;5093504;28;20453;-67
2023/09/21 08:17:23;;;;;;;1.90;1.80;;;24.20;57.40;;;;;;5093228;28;20469;-67
2023/09/21 08:19:49;;;;;;;3.53;2.20;;;24.20;57.40;;;;;;5092661;28;20430;-67
2023/09/21 08:22:15;;;;;;;2.60;1.80;;;24.20;57.40;;;;;;5092481;28;20220;-68
2023/09/21 08:24:41;;;;;;;3.20;2.20;;;24.20;57.40;;;;;;5093182;28;20174;-67
2023/09/21 08:27:08;;;;;;;1.93;1.73;;;24.20;57.40;;;;;;5075154;28;20182;-66
2023/09/21 08:29:34;;;;;;;3.80;2.30;;;24.20;57.50;;;;;;5091765;28;20419;-67
2023/09/21 08:31:59;;;;;;;2.83;2.30;;;24.20;57.40;;;;;;5092878;28;20478;-67
2023/09/21 08:34:25;;;;;;;2.70;2.00;;;24.20;57.40;;;;;;5091730;28;20257;-67
2023/09/21 08:36:51;;;;;;;2.17;1.97;;;24.20;57.40;;;;;;5074880;28;20165;-68
2023/09/21 08:39:17;;;;;;;4.60;2.20;;;24.20;57.40;;;;;;5092951;28;20681;-67
2023/09/21 08:41:51;;;;;;;3.27;2.20;;;24.20;57.50;;;;;;5092478;28;20499;-67
2023/09/21 08:44:20;;;;;;;3.20;2.00;;;24.20;57.50;;;;;;5084340;28;20169;-67
2023/09/21 08:46:50;;;;;;;2.67;2.13;;;24.20;57.40;;;;;;5092437;28;20523;-67
2023/09/21 08:49:16;;;;;;;3.63;2.60;;;24.20;57.40;;;;;;5083130;28;20428;-67
2023/09/21 08:51:44;;;;;;;2.30;2.00;;;24.20;57.40;;;;;;5072468;28;20404;-66
2023/09/21 08:54:15;;;;;;;3.00;2.67;;;24.20;57.40;;;;;;5072573;28;20474;-68
2023/09/21 08:56:43;;;;;;;4.50;2.10;;;24.20;57.40;;;;;;5070997;28;20443;-67
2023/09/21 08:59:09;;;;;;;2.33;2.10;;;24.20;57.40;;;;;;5071998;28;20412;-67
2023/09/21 09:01:36;;;;;;;2.30;1.97;;;24.20;57.40;;;;;;5070328;28;20896;-67
2023/09/21 09:04:02;;;;;;;3.47;1.90;;;24.20;57.40;;;;;;5070285;28;20896;-66
2023/09/21 09:06:29;;;;;;;3.83;2.40;;;24.20;57.40;;;;;;5070258;28;20439;-67
2023/09/21 09:08:55;;;;;;;2.47;2.27;;;24.20;57.40;;;;;;5068816;28;20478;-67
2023/09/21 09:11:40;;;;;;;2.27;1.87;;;24.20;57.50;;;;;;5069894;28;20405;-67
2023/09/21 09:14:22;;;;;;;3.10;2.27;;;24.20;57.40;;;;;;5072162;28;20405;-67
2023/09/21 09:16:49;;;;;;;3.43;1.90;;;24.20;57.50;;;;;;5071646;28;20403;-68
2023/09/21 09:19:15;;;;;;;3.60;2.00;;;24.20;57.40;;;;;;5070014;28;20404;-66
2023/09/21 09:21:41;;;;;;;2.33;1.93;;;24.20;57.40;;;;;;5070703;28;20409;-67
2023/09/21 09:24:08;;;;;;;3.10;2.00;;;24.30;57.50;;;;;;5070076;28;20186;-67
2023/09/21 09:26:38;;;;;;;2.80;1.83;;;24.30;57.40;;;;;;5071751;28;20407;-67
2023/09/21 09:29:04;;;;;;;2.10;1.97;;;24.30;57.40;;;;;;5071893;28;20405;-67
2023/09/21 09:31:30;;;;;;;3.10;2.60;;;24.30;57.50;;;;;;5071416;28;20427;-67
2023/09/21 09:33:57;;;;;;;3.00;2.10;;;24.30;57.50;;;;;;5071724;28;20392;-67
2023/09/21 09:36:24;;;;;;;2.60;1.77;;;24.30;57.40;;;;;;5072003;28;20419;-67
2023/09/21 09:38:50;;;;;;;2.20;1.90;;;24.30;57.40;;;;;;5071487;28;20404;-67
2023/09/21 09:41:18;;;;;;;2.23;1.90;;;24.30;57.40;;;;;;5071678;28;20400;-67
2023/09/21 09:43:52;;;;;;;6.13;2.40;;;24.30;57.40;;;;;;5069933;28;20652;-66
2023/09/21 09:46:22;;;;;;;2.57;2.37;;;24.30;57.40;;;;;;5070445;28;20916;-68
2023/09/21 09:48:50;;;;;;;2.50;2.30;;;24.30;57.40;;;;;;5070125;28;20477;-67
2023/09/21 09:51:24;;;;;;;2.97;2.17;;;24.30;57.40;;;;;;5069996;28;20499;-66
2023/09/21 09:53:52;;;;;;;2.27;2.03;;;24.40;57.50;;;;;;5069773;28;20461;-67
2023/09/21 09:56:19;;;;;;;2.33;1.87;;;24.30;57.40;;;;;;5071190;28;20400;-67
2023/09/21 09:58:47;;;;;;;5.80;2.30;;;24.40;57.50;;;;;;5069833;28;20454;-67
2023/09/21 10:01:17;;;;;;;7.00;2.27;;;24.40;57.50;;;;;;5071037;28;20459;-66
2023/09/21 10:03:43;;;;;;;2.83;2.53;;;24.40;57.50;;;;;;5070549;28;20466;-67
2023/09/21 10:06:11;;;;;;;2.17;1.97;;;24.40;57.50;;;;;;5071421;28;20412;-67
2023/09/21 10:08:38;;;;;;;4.63;2.07;;;24.40;57.50;;;;;;5071150;28;20688;-67
2023/09/21 10:11:09;;;;;;;3.10;2.00;;;24.40;57.50;;;;;;5070905;28;20419;-67
2023/09/21 10:13:35;;;;;;;2.40;2.00;;;24.40;57.50;;;;;;5053218;28;20444;-67
2023/09/21 10:16:05;;;;;;;2.70;2.10;;;24.40;57.50;;;;;;5071027;28;20454;-67
2023/09/21 10:18:36;;;;;;;2.07;1.80;;;24.40;57.50;;;;;;5071234;28;20413;-67
2023/09/21 10:21:23;;;;;;;2.37;1.77;;;24.40;57.50;;;;;;5069528;28;20527;-66
2023/09/21 10:24:04;;;;;;;4.77;2.20;;;24.40;57.50;;;;;;5071128;28;20428;-65
2023/09/21 10:26:34;;;;;;;2.80;2.03;;;24.40;57.50;;;;;;5069441;28;20426;-66
2023/09/21 10:29:03;;;;;;;2.60;1.83;;;24.40;57.50;;;;;;5074691;28;20419;-67
2023/09/21 10:31:30;;;;;;;2.10;1.90;;;24.40;57.50;;;;;;5072553;28;20458;-67
2023/09/21 10:33:58;;;;;;;2.43;2.23;;;24.40;57.50;;;;;;5090601;28;20487;-67
2023/09/21 10:36:28;;;;;;;2.60;2.13;;;24.50;57.50;;;;;;5087064;28;20678;-67
2023/09/21 10:39:06;;;;;;;6.00;2.47;;;24.50;57.50;;;;;;5089279;28;20423;-67
2023/09/21 10:41:36;;;;;;;2.23;1.83;;;24.50;57.50;;;;;;5090789;28;20403;-66
2023/09/21 10:44:02;;;;;;;1.93;1.80;;;24.50;57.50;;;;;;5089688;28;20412;-67
2023/09/21 10:46:34;;;;;;;1.80;1.70;;;24.50;57.50;;;;;;5089726;28;20407;-67
2023/09/21 10:49:23;;;;;;;2.23;1.97;;;24.50;57.60;;;;;;5090785;28;20960;-67
2023/09/21 10:51:49;;;;;;;2.80;1.90;;;24.50;57.50;;;;;;5082734;28;20432;-67
2023/09/21 10:54:17;;;;;;;3.63;1.80;;;24.50;57.50;;;;;;5085450;28;20428;-67
2023/09/21 10:56:43;;;;;;;2.40;1.93;;;24.50;57.60;;;;;;5088715;28;20410;-67
2023/09/21 10:59:09;;;;;;;2.53;2.00;;;24.50;58.10;;;;;;5087527;28;20915;-66
2023/09/21 11:01:39;;;;;;;2.30;1.90;;;24.50;57.50;;;;;;5089273;28;20182;-67
2023/09/21 11:04:05;;;;;;;2.60;1.87;;;24.50;57.50;;;;;;5089110;28;20169;-66
2023/09/21 11:06:31;;;;;;;2.20;1.60;;;24.50;57.70;;;;;;5089005;28;20407;-67
2023/09/21 11:08:57;;;;;;;3.13;2.13;;;24.50;57.60;;;;;;5089026;28;20950;-67
2023/09/21 11:11:25;;;;;;;2.70;1.97;;;24.50;57.60;;;;;;5091174;28;20165;-67
2023/09/21 11:13:54;;;;;;;1.97;1.77;;;24.50;57.60;;;;;;5088851;28;20231;-67
2023/09/21 11:16:21;;;;;;;4.73;2.20;;;24.50;57.60;;;;;;5089987;28;20411;-67
2023/09/21 11:18:48;;;;;;;3.83;1.90;;;24.50;57.60;;;;;;5090385;28;20403;-68
2023/09/21 11:21:16;;;;;;;2.00;1.80;;;24.60;57.70;;;;;;5088898;28;20432;-68
2023/09/21 11:23:45;;;;;;;4.27;2.20;;;24.60;57.70;;;;;;5090611;28;20419;-68
2023/09/21 11:26:14;;;;;;;2.37;2.17;;;24.60;57.70;;;;;;5090230;28;20457;-67
2023/09/21 11:28:41;;;;;;;2.33;2.10;;;24.60;57.60;;;;;;5088741;28;20454;-67
2023/09/21 11:31:08;;;;;;;4.03;2.60;;;24.60;57.60;;;;;;5069557;28;20440;-67
2023/09/21 11:33:34;;;;;;;2.80;2.00;;;24.60;57.60;;;;;;5068921;28;20499;-67
2023/09/21 11:36:00;;;;;;;2.27;2.07;;;24.60;58.20;;;;;;5068047;28;20397;-67
2023/09/21 11:38:29;;;;;;;4.20;2.30;;;24.60;57.60;;;;;;5069277;28;20404;-67
2023/09/21 11:40:54;;;;;;;2.33;2.07;;;24.60;57.60;;;;;;5068905;28;21075;-67
2023/09/21 11:43:22;;;;;;;3.23;1.97;;;24.60;57.60;;;;;;5069866;28;20428;-66
2023/09/21 11:45:48;;;;;;;3.10;2.63;;;24.60;57.60;;;;;;5069736;28;20175;-67
2023/09/21 11:48:13;;;;;;;2.97;2.13;;;24.60;57.60;;;;;;5069897;28;20930;-66
2023/09/21 11:50:41;;;;;;;2.30;2.10;;;24.60;57.60;;;;;;5090897;28;20419;-66
2023/09/21 11:53:07;;;;;;;4.20;3.00;;;24.60;57.60;;;;;;5091428;28;20274;-67
2023/09/21 11:55:33;;;;;;;2.70;2.47;;;24.60;58.10;;;;;;5091847;28;20400;-67
2023/09/21 11:58:15;;;;;;;2.60;2.40;;;24.60;57.60;;;;;;5091631;28;20176;-65
2023/09/21 12:00:49;;;;;;;4.30;2.53;;;24.60;57.60;;;;;;5092721;28;20390;-67
2023/09/21 12:03:17;;;;;;;2.70;2.17;;;24.60;57.60;;;;;;5093490;28;20427;-65
2023/09/21 12:05:43;;;;;;;3.43;2.80;;;24.60;57.60;;;;;;5093519;28;20508;-65
2023/09/21 12:08:16;;;;;;;2.70;2.33;;;24.60;57.60;;;;;;5092417;28;20404;-66
2023/09/21 12:10:46;;;;;;;6.13;2.60;;;24.60;57.50;;;;;;5084035;28;20423;-67
2023/09/21 12:13:15;;;;;;;2.40;2.20;;;24.60;57.50;;;;;;5092717;28;20558;-67
2023/09/21 12:15:44;;;;;;;3.20;2.37;;;24.60;57.50;;;;;;5091721;28;20400;-67
2023/09/21 12:18:10;;;;;;;3.53;2.60;;;24.60;57.60;;;;;;5085377;28;20435;-66
2023/09/21 12:20:49;;;;;;;3.80;2.67;;;24.60;57.50;;;;;;5089215;28;20496;-67
2023/09/21 12:23:15;;;;;;;3.90;2.13;;;24.60;57.50;;;;;;5089952;28;20979;-65
2023/09/21 12:25:41;;;;;;;3.03;2.70;;;24.60;57.60;;;;;;5091273;28;20404;-67
2023/09/21 12:28:09;;;;;;;2.97;2.67;;;24.60;57.60;;;;;;5092653;28;21106;-67
2023/09/21 12:30:37;;;;;;;4.87;2.77;;;24.60;57.60;;;;;;5092642;28;20173;-67
2023/09/21 12:33:03;;;;;;;3.50;2.47;;;24.60;57.60;;;;;;5092896;28;20817;-65
2023/09/21 12:35:30;;;;;;;3.67;2.83;;;24.60;57.60;;;;;;5092924;28;20453;-67
2023/09/21 12:37:56;;;;;;;3.10;2.33;;;24.60;57.60;;;;;;5092928;28;20823;-66
2023/09/21 12:40:22;;;;;;;3.40;3.07;;;24.60;57.60;;;;;;5092920;28;20415;-66
2023/09/21 12:42:47;;;;;;;2.53;2.33;;;24.60;57.60;;;;;;5092727;28;20193;-66
2023/09/21 12:45:16;;;;;;;2.90;2.40;;;24.60;57.60;;;;;;5092847;28;20212;-65
2023/09/21 12:47:46;;;;;;;3.17;2.87;;;24.60;57.60;;;;;;5092761;28;20230;-66
2023/09/21 12:50:13;;;;;;;3.00;2.50;;;24.60;57.60;;;;;;5092734;28;20407;-68
2023/09/21 12:52:40;;;;;;;2.30;2.10;;;24.60;57.60;;;;;;5091063;28;20505;-66
2023/09/21 12:55:06;;;;;;;3.63;2.50;;;24.60;57.60;;;;;;5092594;28;20407;-66